Time;durP1;ratioP1;P1;durP2;ratioP2;P2;SDS_P1;SDS_P2;PMS_P1;PMS_P2;Temp;Humidity;BMP_temperature;BMP_pressure;BME280_temperature;BME280_humidity;BME280_pressure;Samples;Min_cycle;Max_cycle;Signal;HPM_P1;HPM_P2
2022/10/08 00:01:13;;;;;;;2.60;1.60;;;12.40;99.90;;;;;;5052516;28;20181;-70
2022/10/08 00:03:42;;;;;;;3.15;1.50;;;12.30;99.90;;;;;;5054246;28;20271;-70
2022/10/08 00:06:28;;;;;;;3.53;1.35;;;12.30;99.90;;;;;;5047520;28;20174;-71
2022/10/08 00:09:07;;;;;;;3.63;1.65;;;12.30;99.90;;;;;;5049247;28;20196;-70
2022/10/08 00:11:36;;;;;;;4.07;1.50;;;12.30;99.90;;;;;;5047794;28;20471;-70
2022/10/08 00:14:02;;;;;;;2.72;1.20;;;12.20;99.90;;;;;;5041357;28;20173;-71
2022/10/08 00:16:29;;;;;;;2.95;1.30;;;12.20;99.90;;;;;;5052664;28;20205;-71
2022/10/08 00:19:00;;;;;;;2.30;1.48;;;12.20;99.90;;;;;;5053424;28;20197;-70
2022/10/08 00:21:37;;;;;;;3.78;1.35;;;12.20;99.90;;;;;;5065964;28;20176;-70
2022/10/08 00:24:07;;;;;;;2.20;1.20;;;12.20;99.90;;;;;;5057359;28;20177;-70
2022/10/08 00:26:35;;;;;;;3.90;1.60;;;12.20;99.90;;;;;;5063069;28;20277;-70
2022/10/08 00:29:04;;;;;;;4.07;1.23;;;12.20;99.90;;;;;;5063189;28;20197;-70
2022/10/08 00:31:32;;;;;;;2.55;1.10;;;12.10;99.90;;;;;;5064595;28;20181;-69
2022/10/08 00:34:00;;;;;;;3.55;1.23;;;12.10;99.90;;;;;;5064829;28;20193;-71
2022/10/08 00:36:28;;;;;;;1.88;1.10;;;12.10;99.90;;;;;;5062715;28;20201;-70
2022/10/08 00:38:59;;;;;;;2.60;1.33;;;12.10;99.90;;;;;;5062010;28;20213;-70
2022/10/08 00:41:30;;;;;;;2.30;1.23;;;12.10;99.90;;;;;;5062116;28;20184;-70
2022/10/08 00:44:01;;;;;;;1.90;1.02;;;12.10;99.90;;;;;;5058314;28;20178;-70
2022/10/08 00:46:44;;;;;;;3.38;1.50;;;12.10;99.90;;;;;;5065510;28;20219;-70
2022/10/08 00:49:19;;;;;;;2.85;1.40;;;12.00;99.90;;;;;;5038459;28;20213;-70
2022/10/08 00:51:53;;;;;;;2.85;1.13;;;12.10;99.90;;;;;;5057946;28;20241;-70
2022/10/08 00:54:21;;;;;;;3.60;1.20;;;12.00;99.90;;;;;;5059137;28;20193;-71
2022/10/08 00:56:50;;;;;;;2.05;1.00;;;12.00;99.90;;;;;;5061870;28;20280;-70
2022/10/08 00:59:16;;;;;;;3.95;1.30;;;12.00;99.90;;;;;;5059925;28;20208;-70
2022/10/08 01:01:44;;;;;;;3.88;1.50;;;12.00;99.90;;;;;;5054079;28;20217;-70
2022/10/08 01:04:14;;;;;;;2.33;1.27;;;12.00;99.90;;;;;;5055310;28;20181;-70
2022/10/08 01:06:53;;;;;;;2.37;1.27;;;11.90;99.90;;;;;;5055944;28;20201;-70
2022/10/08 01:09:27;;;;;;;2.40;1.35;;;11.90;99.90;;;;;;5049808;28;20181;-70
2022/10/08 01:12:04;;;;;;;2.13;1.23;;;12.00;99.90;;;;;;5057511;28;20181;-70
2022/10/08 01:14:39;;;;;;;2.75;1.20;;;11.90;99.90;;;;;;5058140;28;20311;-70
2022/10/08 01:18:06;;;;;;;2.97;1.27;;;11.90;99.90;;;;;;5056078;28;20190;-69
2022/10/08 01:20:37;;;;;;;3.73;1.43;;;11.90;99.90;;;;;;5000025;28;20194;-70
2022/10/08 01:23:07;;;;;;;2.67;1.10;;;11.90;99.90;;;;;;5019543;28;20185;-71
2022/10/08 01:26:10;;;;;;;3.22;1.13;;;11.90;99.90;;;;;;5030416;28;20182;-70
2022/10/08 01:28:47;;;;;;;2.22;1.40;;;11.90;99.90;;;;;;5083719;28;20208;-70
2022/10/08 01:31:39;;;;;;;2.73;1.30;;;11.90;99.90;;;;;;5066504;28;20189;-70
2022/10/08 01:34:11;;;;;;;1.90;1.10;;;11.90;99.90;;;;;;5041264;28;20197;-70
2022/10/08 01:36:44;;;;;;;3.70;1.43;;;11.90;99.90;;;;;;5050465;28;20185;-70
2022/10/08 01:39:16;;;;;;;2.80;1.13;;;11.90;99.90;;;;;;5056211;28;20212;-69
2022/10/08 01:41:47;;;;;;;2.80;1.50;;;11.90;99.90;;;;;;5065537;28;20265;-70
2022/10/08 01:44:40;;;;;;;3.00;1.23;;;11.90;99.90;;;;;;5051892;28;20173;-70
2022/10/08 01:47:11;;;;;;;3.03;1.20;;;11.90;99.90;;;;;;5044726;28;20213;-70
2022/10/08 01:49:53;;;;;;;3.17;1.33;;;11.90;99.90;;;;;;5049188;28;20178;-70
2022/10/08 01:52:35;;;;;;;3.40;1.30;;;11.90;99.90;;;;;;5045578;28;20200;-70
2022/10/08 01:55:07;;;;;;;3.00;1.05;;;11.80;99.90;;;;;;5044893;28;20169;-70
2022/10/08 01:57:34;;;;;;;2.70;1.20;;;11.90;99.90;;;;;;5047387;28;20184;-70
2022/10/08 02:00:12;;;;;;;3.25;1.20;;;11.80;99.90;;;;;;5055139;28;20271;-70
2022/10/08 02:02:39;;;;;;;2.43;1.17;;;11.80;99.90;;;;;;5057170;28;20172;-70
2022/10/08 02:05:05;;;;;;;3.47;1.23;;;11.80;99.90;;;;;;5057984;28;20201;-70
2022/10/08 02:07:35;;;;;;;2.67;1.30;;;11.80;99.90;;;;;;5071712;28;20282;-70
2022/10/08 02:10:21;;;;;;;3.30;1.20;;;11.80;99.90;;;;;;5056391;28;20178;-69
2022/10/08 02:12:46;;;;;;;2.60;1.30;;;11.70;99.90;;;;;;5041372;28;20202;-70
2022/10/08 02:15:41;;;;;;;4.60;1.00;;;11.70;99.90;;;;;;5059521;28;20236;-70
2022/10/08 02:18:13;;;;;;;2.53;1.10;;;11.70;99.90;;;;;;5047893;28;20305;-70
2022/10/08 02:21:02;;;;;;;3.53;1.52;;;11.70;99.90;;;;;;5051491;28;20209;-70
2022/10/08 02:23:40;;;;;;;2.60;1.23;;;11.50;99.90;;;;;;5061487;28;20277;-70
2022/10/08 02:26:13;;;;;;;4.00;1.23;;;11.60;99.90;;;;;;5056601;28;20169;-69
2022/10/08 02:28:59;;;;;;;3.50;1.57;;;11.60;99.90;;;;;;5038047;28;20205;-69
2022/10/08 02:31:34;;;;;;;4.17;1.40;;;11.60;99.90;;;;;;5059230;28;20170;-70
2022/10/08 02:34:06;;;;;;;2.20;1.00;;;11.60;99.90;;;;;;5058026;28;20273;-71
2022/10/08 02:36:44;;;;;;;2.47;1.30;;;11.60;99.90;;;;;;5051625;28;20181;-70
2022/10/08 02:39:12;;;;;;;2.70;1.10;;;11.40;99.90;;;;;;5047469;28;20280;-70
2022/10/08 02:41:48;;;;;;;1.93;1.20;;;11.50;99.90;;;;;;5057407;28;20205;-70
2022/10/08 02:44:39;;;;;;;2.03;1.20;;;11.50;99.90;;;;;;5050561;28;20188;-70
2022/10/08 02:47:12;;;;;;;3.40;1.30;;;11.50;99.90;;;;;;5055579;28;20242;-70
2022/10/08 02:49:42;;;;;;;3.73;1.30;;;11.40;99.90;;;;;;5053010;28;20241;-70
2022/10/08 02:52:09;;;;;;;3.30;1.40;;;11.50;99.90;;;;;;5052528;28;20180;-70
2022/10/08 02:54:46;;;;;;;3.57;1.30;;;11.50;99.90;;;;;;5050837;28;20226;-70
2022/10/08 02:57:18;;;;;;;3.27;1.20;;;11.50;99.90;;;;;;5052050;28;20174;-69
2022/10/08 02:59:45;;;;;;;3.30;1.30;;;11.40;99.90;;;;;;5054535;28;20258;-70
2022/10/08 03:02:22;;;;;;;2.33;1.20;;;11.40;99.90;;;;;;5053622;28;20268;-70
2022/10/08 03:04:58;;;;;;;3.50;1.47;;;11.40;99.90;;;;;;5051088;28;20178;-70
2022/10/08 03:07:30;;;;;;;1.97;1.20;;;11.40;99.90;;;;;;5047256;28;20345;-70
2022/10/08 03:09:57;;;;;;;4.10;1.30;;;11.30;99.90;;;;;;5052850;28;20184;-70
2022/10/08 03:12:24;;;;;;;3.33;1.13;;;11.30;99.90;;;;;;5054330;28;20169;-70
2022/10/08 03:14:52;;;;;;;3.07;1.13;;;11.30;99.90;;;;;;5054380;28;20209;-70
2022/10/08 03:17:24;;;;;;;2.60;1.20;;;11.30;99.90;;;;;;5055404;28;20173;-70
2022/10/08 03:19:53;;;;;;;2.83;1.10;;;11.30;99.90;;;;;;5047072;28;20190;-70
2022/10/08 03:22:22;;;;;;;2.75;1.20;;;11.30;99.90;;;;;;5039318;28;20173;-70
2022/10/08 03:24:47;;;;;;;3.07;1.30;;;11.40;99.90;;;;;;5054293;28;20173;-70
2022/10/08 03:27:13;;;;;;;4.13;1.20;;;11.30;99.90;;;;;;5042196;28;20205;-70
2022/10/08 03:29:38;;;;;;;4.17;1.93;;;11.40;99.90;;;;;;5043235;28;20272;-71
2022/10/08 03:32:05;;;;;;;3.03;1.23;;;11.40;99.90;;;;;;5059695;28;20172;-70
2022/10/08 03:34:33;;;;;;;5.30;1.50;;;11.50;99.90;;;;;;5038650;28;20219;-70
2022/10/08 03:36:59;;;;;;;4.07;1.30;;;11.50;99.90;;;;;;5058028;28;20185;-70
2022/10/08 03:39:31;;;;;;;2.67;1.13;;;11.50;99.90;;;;;;5040345;28;20205;-71
2022/10/08 03:41:57;;;;;;;2.27;1.10;;;11.60;99.90;;;;;;5050831;28;20201;-70
2022/10/08 03:44:23;;;;;;;2.93;1.33;;;11.60;99.90;;;;;;5048330;28;20413;-70
2022/10/08 03:46:48;;;;;;;4.07;1.50;;;11.60;99.90;;;;;;5039981;28;20212;-70
2022/10/08 03:49:14;;;;;;;2.63;1.30;;;11.70;99.90;;;;;;5036652;28;20182;-70
2022/10/08 03:51:42;;;;;;;2.22;1.10;;;11.70;99.90;;;;;;5044015;28;20211;-70
2022/10/08 03:54:08;;;;;;;2.20;1.13;;;11.70;99.90;;;;;;5049897;28;20272;-70
2022/10/08 03:56:33;;;;;;;3.00;1.30;;;11.70;99.90;;;;;;5054411;28;21770;-70
2022/10/08 03:59:02;;;;;;;2.75;1.35;;;11.70;99.90;;;;;;5048029;28;20198;-70
2022/10/08 04:01:29;;;;;;;2.70;1.05;;;11.70;99.90;;;;;;5054061;28;20189;-70
2022/10/08 04:03:55;;;;;;;2.40;1.35;;;11.70;99.90;;;;;;5060755;28;20203;-70
2022/10/08 04:06:25;;;;;;;4.72;1.60;;;11.80;99.90;;;;;;5053943;28;20189;-71
2022/10/08 04:08:50;;;;;;;2.83;1.30;;;11.80;99.90;;;;;;5045246;28;20188;-70
2022/10/08 04:11:20;;;;;;;4.05;1.30;;;11.80;99.90;;;;;;5059527;28;20177;-70
2022/10/08 04:13:45;;;;;;;6.03;1.63;;;11.80;99.90;;;;;;5071209;28;20193;-70
2022/10/08 04:16:16;;;;;;;2.30;1.10;;;11.80;99.90;;;;;;5045805;28;20188;-71
2022/10/08 04:18:42;;;;;;;2.57;1.10;;;11.80;99.90;;;;;;5056063;28;20201;-69
2022/10/08 04:21:11;;;;;;;2.40;1.00;;;11.90;99.90;;;;;;5052979;28;20177;-70
2022/10/08 04:23:39;;;;;;;2.85;1.27;;;11.90;99.90;;;;;;5056967;28;20219;-70
2022/10/08 04:26:05;;;;;;;2.47;1.15;;;11.90;99.90;;;;;;5055450;28;20197;-69
2022/10/08 04:28:31;;;;;;;5.03;1.30;;;11.90;99.90;;;;;;5056062;28;20259;-70
2022/10/08 04:30:59;;;;;;;2.97;1.25;;;11.90;99.90;;;;;;5055648;28;20207;-70
2022/10/08 04:33:29;;;;;;;3.10;1.10;;;11.90;99.90;;;;;;5063497;28;20216;-70
2022/10/08 04:35:58;;;;;;;4.53;1.00;;;11.90;99.90;;;;;;5056885;28;20173;-70
2022/10/08 04:38:24;;;;;;;2.65;1.10;;;11.90;99.90;;;;;;5048988;28;20256;-71
2022/10/08 04:41:07;;;;;;;2.85;1.27;;;11.90;99.90;;;;;;5056058;28;20177;-71
2022/10/08 04:43:34;;;;;;;2.60;1.13;;;11.90;99.90;;;;;;5058277;28;20201;-70
2022/10/08 04:46:06;;;;;;;3.65;1.33;;;12.00;99.90;;;;;;5056711;28;20197;-71
2022/10/08 04:48:34;;;;;;;2.78;1.08;;;12.00;99.90;;;;;;5057707;28;20184;-72
2022/10/08 04:51:04;;;;;;;5.43;0.95;;;12.10;99.90;;;;;;5066680;28;20237;-71
2022/10/08 04:53:30;;;;;;;2.47;1.00;;;12.10;99.90;;;;;;5058733;28;20495;-71
2022/10/08 04:56:05;;;;;;;3.40;1.35;;;12.10;99.90;;;;;;5060288;28;20184;-72
2022/10/08 04:58:31;;;;;;;3.15;1.17;;;12.20;99.90;;;;;;5074452;28;20215;-72
2022/10/08 05:01:02;;;;;;;2.05;1.00;;;12.30;99.90;;;;;;5045588;28;20186;-71
2022/10/08 05:03:30;;;;;;;2.92;1.25;;;12.40;99.90;;;;;;5055246;28;21115;-71
2022/10/08 05:05:55;;;;;;;3.90;0.95;;;12.40;99.90;;;;;;5041608;28;20193;-72
2022/10/08 05:08:21;;;;;;;1.90;0.90;;;12.40;99.90;;;;;;5046064;28;20207;-72
2022/10/08 05:10:50;;;;;;;3.08;1.63;;;12.50;99.90;;;;;;5057405;28;20268;-71
2022/10/08 05:13:15;;;;;;;5.35;1.20;;;12.50;99.90;;;;;;5049741;28;20205;-71
2022/10/08 05:15:43;;;;;;;2.08;0.90;;;12.60;99.90;;;;;;5057421;28;20280;-71
2022/10/08 05:18:11;;;;;;;3.22;1.20;;;12.60;99.90;;;;;;5056293;28;20197;-71
2022/10/08 05:20:37;;;;;;;2.47;0.90;;;12.70;99.90;;;;;;5037200;28;20178;-71
2022/10/08 05:23:04;;;;;;;2.85;1.10;;;12.70;99.90;;;;;;5045013;28;20182;-74
2022/10/08 05:25:32;;;;;;;2.72;0.95;;;12.80;99.90;;;;;;5044113;28;20224;-71
2022/10/08 05:27:57;;;;;;;3.00;1.20;;;12.80;99.90;;;;;;5039331;28;20211;-71
2022/10/08 05:30:25;;;;;;;3.67;0.98;;;12.80;99.90;;;;;;5045484;28;20268;-71
2022/10/08 05:32:51;;;;;;;4.63;1.30;;;12.90;99.90;;;;;;5052132;28;20183;-73
2022/10/08 05:35:17;;;;;;;2.97;1.00;;;12.90;99.90;;;;;;5056486;28;20169;-70
2022/10/08 05:37:42;;;;;;;2.10;1.10;;;12.90;99.90;;;;;;5059688;28;20261;-72
2022/10/08 05:40:10;;;;;;;2.40;1.30;;;13.00;99.90;;;;;;5059795;28;20255;-71
2022/10/08 05:42:39;;;;;;;2.88;1.20;;;13.10;99.90;;;;;;5068912;28;20166;-70
2022/10/08 05:45:07;;;;;;;3.42;0.93;;;13.10;99.90;;;;;;5052320;28;20177;-71
2022/10/08 05:47:33;;;;;;;3.05;1.13;;;13.10;99.90;;;;;;5048396;28;20257;-71
2022/10/08 05:49:58;;;;;;;3.15;1.13;;;13.10;99.90;;;;;;5041826;28;20216;-72
2022/10/08 05:52:25;;;;;;;2.67;0.90;;;13.20;99.90;;;;;;5056542;28;20181;-71
2022/10/08 05:54:51;;;;;;;2.30;1.10;;;13.20;99.90;;;;;;5046303;28;20177;-73
2022/10/08 05:57:17;;;;;;;6.05;1.10;;;13.20;99.90;;;;;;5040736;28;20197;-71
2022/10/08 05:59:42;;;;;;;2.30;1.00;;;13.20;99.90;;;;;;5052985;28;20201;-72
2022/10/08 06:02:10;;;;;;;3.15;1.05;;;13.20;99.90;;;;;;5057073;28;20186;-71
2022/10/08 06:04:37;;;;;;;3.45;1.40;;;13.20;99.90;;;;;;5051175;28;20185;-71
2022/10/08 06:07:03;;;;;;;4.13;1.20;;;13.20;99.90;;;;;;5056314;28;20165;-71
2022/10/08 06:09:29;;;;;;;4.55;1.13;;;13.20;99.90;;;;;;5047697;28;20201;-71
2022/10/08 06:11:54;;;;;;;3.70;1.10;;;13.20;99.90;;;;;;5055205;28;20411;-72
2022/10/08 06:14:20;;;;;;;1.80;1.00;;;13.20;99.90;;;;;;5052303;28;20255;-73
2022/10/08 06:16:48;;;;;;;3.38;1.10;;;13.20;99.90;;;;;;5050391;28;20193;-72
2022/10/08 06:19:14;;;;;;;4.82;1.10;;;13.20;99.90;;;;;;5052394;28;20205;-73
2022/10/08 06:21:40;;;;;;;3.53;1.00;;;13.20;99.90;;;;;;5052824;28;20178;-71
2022/10/08 06:24:12;;;;;;;5.00;1.05;;;13.20;99.90;;;;;;5045807;28;20189;-72
2022/10/08 06:26:39;;;;;;;1.55;0.80;;;13.30;99.90;;;;;;5045870;28;20177;-77
2022/10/08 06:29:06;;;;;;;1.92;1.08;;;13.30;99.90;;;;;;5038906;28;20205;-78
2022/10/08 06:31:35;;;;;;;2.65;0.98;;;13.30;99.90;;;;;;5054749;28;20192;-75
2022/10/08 06:34:04;;;;;;;2.50;0.90;;;13.40;99.90;;;;;;5051602;28;20251;-78
2022/10/08 06:36:30;;;;;;;3.55;1.30;;;13.40;99.90;;;;;;5041247;28;20205;-70
2022/10/08 06:39:00;;;;;;;1.90;1.00;;;13.50;99.90;;;;;;5054897;28;20205;-71
2022/10/08 06:41:29;;;;;;;3.03;1.17;;;13.60;99.90;;;;;;5052504;28;20188;-71
2022/10/08 06:43:54;;;;;;;5.22;2.90;;;13.70;99.90;;;;;;5035842;28;20289;-71
2022/10/08 06:46:21;;;;;;;10.70;5.97;;;13.80;99.90;;;;;;5054156;28;20169;-70
2022/10/08 06:48:47;;;;;;;7.38;3.65;;;13.80;99.90;;;;;;5054923;28;20351;-70
2022/10/08 06:51:15;;;;;;;6.05;2.85;;;13.90;99.90;;;;;;5037696;28;20174;-70
2022/10/08 06:53:51;;;;;;;3.22;1.92;;;14.00;99.90;;;;;;5055574;28;20192;-70
2022/10/08 06:56:19;;;;;;;3.30;1.83;;;14.00;99.90;;;;;;5054829;28;20203;-71
2022/10/08 06:58:46;;;;;;;5.60;1.90;;;14.10;99.90;;;;;;5068503;28;20193;-70
2022/10/08 07:01:24;;;;;;;3.90;1.40;;;14.10;99.90;;;;;;5056048;28;20162;-70
2022/10/08 07:03:53;;;;;;;2.33;1.40;;;14.20;99.90;;;;;;5046609;28;20169;-70
2022/10/08 07:06:19;;;;;;;2.83;1.15;;;14.20;99.90;;;;;;5059972;28;20181;-70
2022/10/08 07:08:45;;;;;;;3.40;1.10;;;14.30;99.90;;;;;;5064222;28;20195;-70
2022/10/08 07:11:13;;;;;;;2.50;1.40;;;14.30;99.90;;;;;;5060192;28;20174;-70
2022/10/08 07:13:42;;;;;;;14.80;10.07;;;14.40;99.90;;;;;;5058999;28;20180;-69
2022/10/08 07:16:17;;;;;;;22.00;14.23;;;14.50;99.90;;;;;;5052350;28;20210;-70
2022/10/08 07:18:46;;;;;;;10.02;6.88;;;14.50;99.90;;;;;;5043196;28;20353;-70
2022/10/08 07:21:14;;;;;;;5.15;3.85;;;14.60;99.90;;;;;;5061308;28;20173;-70
2022/10/08 07:23:40;;;;;;;4.28;2.95;;;14.60;99.90;;;;;;5059680;28;20208;-71
2022/10/08 07:26:19;;;;;;;4.18;2.13;;;14.70;99.90;;;;;;5047377;28;20181;-70
2022/10/08 07:29:08;;;;;;;2.92;2.00;;;14.70;99.90;;;;;;5064673;28;20181;-70
2022/10/08 07:31:37;;;;;;;3.42;1.42;;;14.80;99.90;;;;;;5051024;28;20189;-70
2022/10/08 07:34:06;;;;;;;2.45;1.40;;;14.90;99.90;;;;;;5056569;28;20184;-70
2022/10/08 07:36:34;;;;;;;4.45;1.40;;;15.00;99.90;;;;;;5052923;28;20413;-70
2022/10/08 07:39:07;;;;;;;2.15;1.13;;;15.00;99.90;;;;;;5045755;28;20209;-69
2022/10/08 07:41:33;;;;;;;3.33;1.40;;;15.10;99.90;;;;;;5064000;28;20184;-70
2022/10/08 07:44:01;;;;;;;2.35;1.25;;;15.20;99.90;;;;;;5061421;28;20201;-70
2022/10/08 07:46:28;;;;;;;2.33;1.23;;;15.20;99.90;;;;;;5060597;28;20173;-70
2022/10/08 07:48:57;;;;;;;2.63;1.30;;;15.20;99.90;;;;;;5048141;28;20174;-69
2022/10/08 07:51:27;;;;;;;2.97;1.20;;;15.30;99.90;;;;;;5054358;28;20243;-71
2022/10/08 07:53:53;;;;;;;4.30;1.55;;;15.30;99.90;;;;;;5063550;28;20188;-71
2022/10/08 07:56:22;;;;;;;3.45;1.17;;;15.30;99.90;;;;;;5061627;28;20173;-71
2022/10/08 07:58:48;;;;;;;6.40;1.70;;;15.40;99.90;;;;;;5065544;28;20220;-70
2022/10/08 08:01:28;;;;;;;5.82;1.50;;;15.40;99.90;;;;;;5150697;22;20249;-74
2022/10/08 08:03:56;;;;;;;4.28;1.40;;;15.40;99.90;;;;;;5018376;28;20178;-71
2022/10/08 08:06:24;;;;;;;3.28;1.33;;;15.50;99.90;;;;;;5021023;28;20182;-74
2022/10/08 08:08:50;;;;;;;4.57;1.52;;;15.50;99.90;;;;;;5014828;28;20265;-73
2022/10/08 08:11:20;;;;;;;4.00;1.45;;;15.50;99.90;;;;;;5032710;28;20201;-73
2022/10/08 08:13:46;;;;;;;3.70;1.60;;;15.50;99.90;;;;;;5034392;28;20181;-71
2022/10/08 08:16:15;;;;;;;3.17;1.38;;;15.50;99.90;;;;;;5034235;28;20193;-73
2022/10/08 08:18:45;;;;;;;2.72;1.50;;;15.50;99.90;;;;;;5033217;28;20285;-73
2022/10/08 08:21:13;;;;;;;3.65;1.70;;;15.60;99.90;;;;;;5033923;28;20319;-73
2022/10/08 08:23:44;;;;;;;5.80;1.88;;;15.60;99.90;;;;;;5034614;28;20170;-73
2022/10/08 08:26:12;;;;;;;5.13;2.05;;;15.70;99.90;;;;;;5033305;28;20186;-71
2022/10/08 08:28:41;;;;;;;4.97;2.00;;;15.80;99.90;;;;;;5033904;28;20174;-73
2022/10/08 08:31:10;;;;;;;7.25;2.42;;;15.80;99.90;;;;;;5029699;28;20190;-73
2022/10/08 08:33:35;;;;;;;5.95;2.30;;;15.90;99.90;;;;;;5024923;28;20209;-72
2022/10/08 08:36:02;;;;;;;5.03;2.10;;;15.80;99.90;;;;;;5035124;28;20186;-73
2022/10/08 08:38:27;;;;;;;7.03;2.38;;;15.80;99.90;;;;;;5018032;28;20201;-73
2022/10/08 08:41:07;;;;;;;5.95;1.95;;;15.80;99.90;;;;;;5017076;28;20199;-73
2022/10/08 08:43:35;;;;;;;6.50;2.72;;;15.80;99.90;;;;;;5027428;28;20170;-74
2022/10/08 08:46:02;;;;;;;6.18;2.10;;;15.80;99.90;;;;;;5034754;28;20204;-74
2022/10/08 08:48:32;;;;;;;4.72;2.42;;;15.80;99.90;;;;;;5018573;28;20199;-73
2022/10/08 08:50:59;;;;;;;4.82;1.90;;;15.80;99.90;;;;;;5026674;28;20174;-74
2022/10/08 08:53:25;;;;;;;5.50;2.35;;;15.90;99.90;;;;;;5015517;28;20240;-73
2022/10/08 08:55:54;;;;;;;5.22;2.10;;;15.90;99.90;;;;;;5037748;28;20285;-72
2022/10/08 08:58:41;;;;;;;4.80;2.28;;;16.00;99.90;;;;;;5034924;28;20257;-73
2022/10/08 09:01:36;;;;;;;6.53;2.10;;;16.00;99.90;;;;;;5022940;28;20252;-74
2022/10/08 09:04:14;;;;;;;5.38;2.55;;;16.10;99.90;;;;;;5035515;28;20170;-73
2022/10/08 09:06:42;;;;;;;5.05;2.00;;;16.20;99.90;;;;;;5020980;28;20230;-72
2022/10/08 09:09:36;;;;;;;5.43;1.90;;;16.20;99.90;;;;;;5020559;28;20174;-70
2022/10/08 09:12:32;;;;;;;6.00;2.33;;;16.30;99.90;;;;;;5045531;28;20178;-73
2022/10/08 09:15:00;;;;;;;3.20;1.90;;;16.50;99.90;;;;;;5029287;28;20201;-73
2022/10/08 09:17:35;;;;;;;3.97;2.17;;;16.70;99.90;;;;;;5021483;28;20194;-69
2022/10/08 09:20:06;;;;;;;4.22;1.98;;;17.20;99.90;;;;;;5059066;28;20204;-74
2022/10/08 09:22:39;;;;;;;3.17;1.95;;;17.80;99.90;;;;;;5056038;28;20200;-67
2022/10/08 09:25:05;;;;;;;7.85;2.70;;;18.50;99.90;;;;;;5036357;28;20271;-73
2022/10/08 09:27:53;;;;;;;5.18;2.13;;;19.00;99.90;;;;;;5041468;28;20166;-73
2022/10/08 09:30:38;;;;;;;4.05;1.98;;;19.10;99.90;;;;;;5041309;28;20190;-72
2022/10/08 09:33:06;;;;;;;4.70;2.00;;;19.10;99.90;;;;;;5039967;28;20200;-71
2022/10/08 09:35:41;;;;;;;3.30;1.90;;;19.20;99.90;;;;;;5040830;28;20174;-72
2022/10/08 09:38:19;;;;;;;3.10;1.70;;;19.10;99.90;;;;;;5042674;28;20170;-70
2022/10/08 09:41:00;;;;;;;4.63;1.63;;;19.00;99.90;;;;;;5042637;28;20204;-74
2022/10/08 09:43:32;;;;;;;3.42;1.73;;;18.90;99.90;;;;;;5024105;28;20189;-73
2022/10/08 09:45:58;;;;;;;4.13;1.80;;;18.90;99.90;;;;;;5049454;28;20192;-73
2022/10/08 09:48:29;;;;;;;6.60;1.85;;;19.10;99.90;;;;;;5046970;28;20229;-73
2022/10/08 09:51:00;;;;;;;3.25;1.50;;;19.30;99.90;;;;;;5037194;28;20182;-76
2022/10/08 09:53:48;;;;;;;4.32;1.70;;;19.30;99.90;;;;;;5016466;28;20198;-73
2022/10/08 09:56:25;;;;;;;4.43;1.45;;;19.30;99.90;;;;;;5017100;28;20199;-74
2022/10/08 09:59:01;;;;;;;6.03;1.77;;;19.40;99.90;;;;;;5035690;28;20205;-74
2022/10/08 10:01:30;;;;;;;2.97;1.52;;;19.50;99.90;;;;;;5030624;28;20214;-72
2022/10/08 10:04:03;;;;;;;4.97;1.65;;;19.60;99.90;;;;;;5043964;28;20236;-74
2022/10/08 10:06:28;;;;;;;4.28;1.50;;;19.80;99.90;;;;;;5018533;28;20198;-74
2022/10/08 10:09:22;;;;;;;2.55;1.33;;;19.90;99.90;;;;;;5020914;28;20176;-73
2022/10/08 10:12:14;;;;;;;3.60;1.48;;;20.10;99.90;;;;;;5027142;28;20274;-71
2022/10/08 10:14:51;;;;;;;2.55;1.27;;;20.20;99.90;;;;;;5033192;28;20175;-74
2022/10/08 10:17:40;;;;;;;2.65;1.40;;;20.20;99.90;;;;;;5039587;28;20178;-72
2022/10/08 10:20:21;;;;;;;2.63;1.45;;;20.00;99.90;;;;;;5023383;28;20218;-74
2022/10/08 10:23:01;;;;;;;4.43;2.20;;;19.90;99.90;;;;;;5035913;28;20174;-71
2022/10/08 10:25:59;;;;;;;4.63;2.20;;;19.70;99.90;;;;;;5035554;28;20189;-73
2022/10/08 10:28:39;;;;;;;3.55;1.42;;;19.40;99.90;;;;;;5035006;28;20182;-71
2022/10/08 10:31:13;;;;;;;2.35;1.40;;;19.20;99.90;;;;;;5027211;28;20183;-71
2022/10/08 10:33:48;;;;;;;3.28;1.25;;;18.90;99.90;;;;;;5038738;28;20164;-71
2022/10/08 10:36:15;;;;;;;5.07;1.52;;;18.70;99.90;;;;;;5037051;28;20177;-73
2022/10/08 10:39:00;;;;;;;3.47;1.73;;;18.70;99.90;;;;;;5020206;28;20194;-72
2022/10/08 10:41:42;;;;;;;3.88;1.70;;;18.90;99.90;;;;;;5024040;28;20256;-73
2022/10/08 10:44:12;;;;;;;2.97;1.52;;;19.20;99.90;;;;;;5017091;28;20166;-73
2022/10/08 10:46:53;;;;;;;4.45;1.67;;;19.20;99.90;;;;;;5028777;28;20174;-70
2022/10/08 10:49:27;;;;;;;4.43;1.90;;;19.20;99.90;;;;;;5035343;28;20192;-71
2022/10/08 10:52:30;;;;;;;2.70;1.70;;;19.10;99.90;;;;;;5024114;28;20174;-72
2022/10/08 10:55:01;;;;;;;7.35;1.73;;;19.10;99.90;;;;;;5035997;28;20169;-72
2022/10/08 10:57:38;;;;;;;4.07;1.70;;;18.90;99.90;;;;;;5037224;28;20397;-72
2022/10/08 11:00:22;;;;;;;3.20;1.60;;;18.80;99.90;;;;;;5035312;28;20244;-74
2022/10/08 11:02:58;;;;;;;3.05;1.70;;;18.60;99.90;;;;;;5033321;28;20185;-72
2022/10/08 11:05:30;;;;;;;2.88;1.50;;;18.50;99.90;;;;;;5029404;28;20292;-72
2022/10/08 11:07:59;;;;;;;3.85;1.40;;;18.60;99.90;;;;;;5023940;28;20178;-73
2022/10/08 11:10:50;;;;;;;3.72;1.40;;;18.70;99.90;;;;;;5026984;28;20180;-73
2022/10/08 11:13:40;;;;;;;2.00;1.00;;;19.00;99.90;;;;;;5016809;28;20195;-73
2022/10/08 11:16:08;;;;;;;3.47;1.40;;;19.30;99.90;;;;;;5024475;28;20177;-72
2022/10/08 11:18:41;;;;;;;2.40;1.27;;;19.50;99.90;;;;;;5032542;28;20206;-72
2022/10/08 11:21:10;;;;;;;2.28;1.33;;;19.70;99.90;;;;;;5030722;28;20206;-74
2022/10/08 11:23:56;;;;;;;2.13;1.10;;;19.80;99.90;;;;;;5048008;28;20188;-74
2022/10/08 11:26:36;;;;;;;3.63;1.55;;;19.90;99.90;;;;;;5033670;28;20178;-74
2022/10/08 11:29:10;;;;;;;3.33;1.20;;;19.80;99.90;;;;;;5033424;28;20187;-73
2022/10/08 11:31:45;;;;;;;2.97;1.23;;;19.60;99.90;;;;;;5033731;28;20197;-74
2022/10/08 11:34:29;;;;;;;4.85;1.20;;;19.40;99.90;;;;;;5032934;28;20193;-72
2022/10/08 11:37:00;;;;;;;2.95;1.15;;;19.30;99.90;;;;;;5036994;28;20204;-73
2022/10/08 11:39:57;;;;;;;4.60;1.67;;;19.20;99.90;;;;;;5034714;28;20190;-73
2022/10/08 11:42:40;;;;;;;2.72;1.17;;;19.10;99.90;;;;;;5030229;28;20197;-74
2022/10/08 11:45:27;;;;;;;3.10;1.08;;;19.20;99.90;;;;;;5034722;28;20216;-73
2022/10/08 11:47:54;;;;;;;2.53;1.00;;;19.30;99.90;;;;;;5042957;28;20235;-74
2022/10/08 11:50:36;;;;;;;4.10;1.15;;;19.50;99.90;;;;;;5034655;28;20197;-73
2022/10/08 11:53:16;;;;;;;2.20;1.00;;;19.70;99.90;;;;;;5036173;28;20184;-74
2022/10/08 11:55:56;;;;;;;4.00;1.15;;;19.90;99.90;;;;;;5043329;28;20212;-73
2022/10/08 11:58:29;;;;;;;2.33;0.85;;;20.00;99.90;;;;;;5036998;28;20193;-73
2022/10/08 12:01:11;;;;;;;3.38;1.20;;;20.00;99.90;;;;;;5034945;28;20190;-72
2022/10/08 12:03:40;;;;;;;4.07;1.10;;;20.00;99.90;;;;;;5027669;28;20189;-72
2022/10/08 12:06:13;;;;;;;1.60;0.93;;;20.00;99.90;;;;;;5032993;28;20178;-73
2022/10/08 12:09:23;;;;;;;2.70;1.38;;;19.90;99.90;;;;;;5032583;28;20185;-75
2022/10/08 12:11:51;;;;;;;4.47;1.40;;;19.80;99.90;;;;;;5026533;28;20437;-73
2022/10/08 12:14:17;;;;;;;3.10;1.20;;;19.60;99.90;;;;;;5033575;28;20174;-75
2022/10/08 12:16:54;;;;;;;3.35;1.30;;;19.60;99.90;;;;;;5044931;28;20184;-72
2022/10/08 12:19:34;;;;;;;3.67;1.17;;;19.60;99.90;;;;;;5029503;28;20209;-72
2022/10/08 12:22:16;;;;;;;2.20;1.08;;;19.70;99.90;;;;;;5030365;28;20202;-73
2022/10/08 12:24:45;;;;;;;3.50;1.67;;;19.80;99.90;;;;;;5033629;28;20243;-73
2022/10/08 12:27:16;;;;;;;2.88;1.00;;;19.90;99.90;;;;;;5035128;28;20174;-73
2022/10/08 12:29:59;;;;;;;5.72;1.77;;;20.00;99.90;;;;;;5033234;28;20205;-74
2022/10/08 12:32:51;;;;;;;2.50;1.08;;;20.10;99.90;;;;;;5014059;28;20205;-73
2022/10/08 12:35:33;;;;;;;3.28;1.10;;;20.30;99.90;;;;;;5035102;28;20239;-74
2022/10/08 12:38:26;;;;;;;3.53;1.00;;;20.40;99.90;;;;;;5038717;28;20231;-75
2022/10/08 12:40:59;;;;;;;4.55;1.20;;;20.60;99.90;;;;;;5037418;28;20180;-74
2022/10/08 12:44:02;;;;;;;4.47;0.95;;;20.70;99.90;;;;;;5035825;28;20177;-75
2022/10/08 12:46:37;;;;;;;5.07;0.82;;;20.80;98.70;;;;;;5036469;28;20180;-73
2022/10/08 12:49:27;;;;;;;2.03;0.82;;;20.90;99.20;;;;;;5036311;28;20183;-73
2022/10/08 12:52:06;;;;;;;2.50;0.95;;;20.90;98.70;;;;;;5023487;28;20170;-74
2022/10/08 12:54:32;;;;;;;3.25;0.82;;;20.90;99.40;;;;;;5033979;28;20194;-74
2022/10/08 12:57:07;;;;;;;4.88;1.40;;;21.00;99.90;;;;;;5036298;28;20197;-73
2022/10/08 12:59:32;;;;;;;2.67;1.00;;;21.10;99.20;;;;;;5047560;28;20463;-73
2022/10/08 13:02:00;;;;;;;2.13;1.00;;;21.10;99.60;;;;;;5034478;28;20245;-74
2022/10/08 13:04:31;;;;;;;3.65;1.05;;;21.10;99.70;;;;;;5024481;28;20174;-73
2022/10/08 13:07:17;;;;;;;2.15;0.90;;;21.10;98.70;;;;;;5035640;28;20194;-73
2022/10/08 13:09:43;;;;;;;3.53;1.20;;;21.00;98.90;;;;;;5027724;28;20232;-72
2022/10/08 13:12:11;;;;;;;2.10;0.98;;;20.90;98.90;;;;;;5032842;28;20183;-74
2022/10/08 13:14:41;;;;;;;3.78;0.90;;;20.90;99.30;;;;;;5034251;28;20243;-74